Time;durP1;ratioP1;P1;durP2;ratioP2;P2;SDS_P1;SDS_P2;PMS_P1;PMS_P2;Temp;Humidity;BMP_temperature;BMP_pressure;BME280_temperature;BME280_humidity;BME280_pressure;Samples;Min_cycle;Max_cycle;Signal;HPM_P1;HPM_P2
2021/09/04 00:00:42;;;;;;;16.95;8.80;;;14.60;99.90;;;;;;4983479;28;20108;-85
2021/09/04 00:03:08;;;;;;;20.23;9.80;;;14.60;99.80;;;;;;4968002;28;20409;-85
2021/09/04 00:05:35;;;;;;;14.00;8.23;;;14.60;99.80;;;;;;4983543;28;20092;-84
2021/09/04 00:08:01;;;;;;;15.00;8.30;;;14.60;99.80;;;;;;4982601;28;20081;-86
2021/09/04 00:10:27;;;;;;;18.38;8.40;;;14.60;99.80;;;;;;5002596;28;20048;-86
2021/09/04 00:12:53;;;;;;;14.85;8.27;;;14.60;99.90;;;;;;4967394;28;20030;-85
2021/09/04 00:15:19;;;;;;;19.70;8.55;;;14.60;99.90;;;;;;4971299;28;20401;-86
2021/09/04 00:17:44;;;;;;;19.05;8.35;;;14.60;99.90;;;;;;4969306;28;20080;-86
2021/09/04 00:20:12;;;;;;;18.50;8.57;;;14.60;99.90;;;;;;4956369;28;20102;-85
2021/09/04 00:22:38;;;;;;;14.55;8.45;;;14.60;99.90;;;;;;4983485;28;20128;-85
2021/09/04 00:25:04;;;;;;;16.65;8.80;;;14.60;99.90;;;;;;4968928;28;20080;-85
2021/09/04 00:27:29;;;;;;;17.35;9.00;;;14.60;99.90;;;;;;4985778;28;20046;-86
2021/09/04 00:29:55;;;;;;;15.20;8.57;;;14.60;99.90;;;;;;4982697;28;20235;-85
2021/09/04 00:32:21;;;;;;;15.15;8.73;;;14.60;99.90;;;;;;4971402;28;20038;-86
2021/09/04 00:34:48;;;;;;;16.88;8.25;;;14.60;99.90;;;;;;4984933;28;20037;-85
2021/09/04 00:37:14;;;;;;;15.95;8.77;;;14.60;99.90;;;;;;4953157;28;20034;-86
2021/09/04 00:39:40;;;;;;;19.13;8.85;;;14.60;99.90;;;;;;4982548;28;20067;-86
2021/09/04 00:42:06;;;;;;;13.77;8.52;;;14.60;99.90;;;;;;4979530;28;20509;-85
2021/09/04 00:44:32;;;;;;;15.68;8.38;;;14.60;99.90;;;;;;4986192;28;20042;-84
2021/09/04 00:47:05;;;;;;;13.80;8.73;;;14.60;99.90;;;;;;4984445;28;20736;-85
2021/09/04 00:49:34;;;;;;;16.75;8.77;;;14.60;99.90;;;;;;5002686;28;20041;-85
2021/09/04 00:52:00;;;;;;;19.48;9.32;;;14.60;99.90;;;;;;4993063;28;20515;-85
2021/09/04 00:54:26;;;;;;;15.95;8.15;;;14.60;99.90;;;;;;4987666;28;20045;-85
2021/09/04 00:56:52;;;;;;;15.27;8.25;;;14.60;99.90;;;;;;4989275;28;20029;-84
2021/09/04 00:59:18;;;;;;;18.10;8.32;;;14.60;99.90;;;;;;5000735;28;20455;-84
2021/09/04 01:01:44;;;;;;;16.58;8.20;;;14.60;99.90;;;;;;4985218;28;20046;-84
2021/09/04 01:04:09;;;;;;;13.15;7.70;;;14.60;99.90;;;;;;4972350;28;20079;-85
2021/09/04 01:06:35;;;;;;;13.23;7.70;;;14.60;99.90;;;;;;4971560;28;20301;-84
2021/09/04 01:09:01;;;;;;;17.52;8.57;;;14.60;99.90;;;;;;5004042;28;20431;-85
2021/09/04 01:11:28;;;;;;;16.02;7.50;;;14.60;99.90;;;;;;5009635;28;20117;-84
2021/09/04 01:13:54;;;;;;;15.65;7.72;;;14.60;99.90;;;;;;4990118;28;20129;-86
2021/09/04 01:16:20;;;;;;;15.35;7.65;;;14.60;99.90;;;;;;4992728;28;20510;-84
2021/09/04 01:18:45;;;;;;;17.02;7.68;;;14.60;99.90;;;;;;4971907;28;20041;-84
2021/09/04 01:21:11;;;;;;;16.42;7.75;;;14.60;99.90;;;;;;4990818;28;20053;-86
2021/09/04 01:23:39;;;;;;;19.67;7.55;;;14.60;99.90;;;;;;4974438;28;20077;-86
2021/09/04 01:26:09;;;;;;;15.75;7.88;;;14.60;99.90;;;;;;5007913;28;20574;-83
2021/09/04 01:28:36;;;;;;;15.75;7.65;;;14.50;99.90;;;;;;5003819;28;20382;-85
2021/09/04 01:31:03;;;;;;;16.80;7.15;;;14.50;99.90;;;;;;4993078;28;20045;-84
2021/09/04 01:33:29;;;;;;;13.27;7.07;;;14.50;99.90;;;;;;4972665;28;20415;-85
2021/09/04 01:35:54;;;;;;;19.23;7.55;;;14.50;99.90;;;;;;4986598;28;20052;-85
2021/09/04 01:38:20;;;;;;;12.18;7.18;;;14.50;99.90;;;;;;4992297;28;20044;-84
2021/09/04 01:40:46;;;;;;;16.67;6.97;;;14.50;99.90;;;;;;4987568;28;20129;-84
2021/09/04 01:43:12;;;;;;;14.90;7.25;;;14.50;99.90;;;;;;4993304;28;20037;-85
2021/09/04 01:45:38;;;;;;;14.13;6.38;;;14.50;99.90;;;;;;4994366;28;20038;-86
2021/09/04 01:48:04;;;;;;;14.82;6.75;;;14.40;99.90;;;;;;4973707;28;20114;-84
2021/09/04 01:50:31;;;;;;;12.35;6.22;;;14.40;99.90;;;;;;4982160;28;20064;-84
2021/09/04 01:52:57;;;;;;;13.73;6.00;;;14.40;99.90;;;;;;4992992;28;20034;-84
2021/09/04 01:55:23;;;;;;;10.43;5.78;;;14.40;99.90;;;;;;4990607;28;20108;-84
2021/09/04 01:57:49;;;;;;;17.27;6.15;;;14.40;99.90;;;;;;4964025;28;20052;-84
2021/09/04 02:00:16;;;;;;;11.30;6.07;;;14.40;99.90;;;;;;5010590;28;20433;-84
2021/09/04 02:02:42;;;;;;;12.75;5.78;;;14.40;99.90;;;;;;4993510;28;20038;-85
2021/09/04 02:05:10;;;;;;;11.00;5.95;;;14.40;99.90;;;;;;4986601;28;20084;-84
2021/09/04 02:07:36;;;;;;;13.07;6.30;;;14.30;99.90;;;;;;4991000;28;20037;-83
2021/09/04 02:10:04;;;;;;;16.10;6.05;;;14.30;99.90;;;;;;4992317;28;20571;-84
2021/09/04 02:12:29;;;;;;;13.32;5.50;;;14.30;99.90;;;;;;4998052;28;20087;-84
2021/09/04 02:14:55;;;;;;;13.38;5.93;;;14.30;99.90;;;;;;4989843;28;20409;-84
2021/09/04 02:17:21;;;;;;;10.90;6.50;;;14.30;99.90;;;;;;4991202;28;20044;-84
2021/09/04 02:19:47;;;;;;;16.88;5.75;;;14.30;99.90;;;;;;4987512;28;20038;-85
2021/09/04 02:22:14;;;;;;;11.38;5.55;;;14.30;99.90;;;;;;4987792;28;20119;-85
2021/09/04 02:24:40;;;;;;;15.35;6.35;;;14.30;99.90;;;;;;4990598;28;20080;-84
2021/09/04 02:27:06;;;;;;;13.48;6.10;;;14.30;99.90;;;;;;5001138;28;20069;-85
2021/09/04 02:29:32;;;;;;;14.82;5.70;;;14.30;99.90;;;;;;5007728;28;20038;-85
2021/09/04 02:31:58;;;;;;;13.50;5.45;;;14.30;99.90;;;;;;4998045;28;20041;-85
2021/09/04 02:34:23;;;;;;;12.27;6.05;;;14.30;99.90;;;;;;4986653;28;20126;-85
2021/09/04 02:36:49;;;;;;;13.95;5.97;;;14.30;99.90;;;;;;4977721;28;20041;-85
2021/09/04 02:39:15;;;;;;;13.70;5.53;;;14.30;99.90;;;;;;5010294;28;20049;-84
2021/09/04 02:41:42;;;;;;;11.30;5.40;;;14.30;99.90;;;;;;4990249;28;20284;-85
2021/09/04 02:44:08;;;;;;;10.50;5.63;;;14.30;99.90;;;;;;4990864;28;20111;-84
2021/09/04 02:46:34;;;;;;;11.80;5.93;;;14.30;99.90;;;;;;4988540;28;20073;-85
2021/09/04 02:48:59;;;;;;;13.27;5.75;;;14.30;99.90;;;;;;4992004;28;20441;-85
2021/09/04 02:51:25;;;;;;;13.23;5.63;;;14.30;99.90;;;;;;4981144;28;20097;-85
2021/09/04 02:53:51;;;;;;;13.00;5.60;;;14.30;99.90;;;;;;4972627;28;20066;-85
2021/09/04 02:56:17;;;;;;;13.02;5.85;;;14.30;99.90;;;;;;4991753;28;20048;-85
2021/09/04 02:58:42;;;;;;;14.48;6.45;;;14.30;99.90;;;;;;5010628;28;20042;-84
2021/09/04 03:01:09;;;;;;;12.27;5.72;;;14.30;99.90;;;;;;4997633;28;20044;-85
2021/09/04 03:03:34;;;;;;;13.73;5.75;;;14.30;99.90;;;;;;4979476;28;20129;-85
2021/09/04 03:06:03;;;;;;;13.57;5.45;;;14.30;99.90;;;;;;4990618;28;20116;-85
2021/09/04 03:08:29;;;;;;;15.38;5.60;;;14.30;99.90;;;;;;4976886;28;20034;-84
2021/09/04 03:10:55;;;;;;;14.05;5.55;;;14.30;99.90;;;;;;4993603;28;20045;-84
2021/09/04 03:13:21;;;;;;;10.77;6.05;;;14.30;99.90;;;;;;5009507;28;20068;-85
2021/09/04 03:15:47;;;;;;;13.48;6.03;;;14.30;99.90;;;;;;4976409;28;20034;-86
2021/09/04 03:18:13;;;;;;;10.57;5.68;;;14.30;99.90;;;;;;4976193;28;20714;-85
2021/09/04 03:20:39;;;;;;;14.93;5.55;;;14.30;99.90;;;;;;4976678;28;20041;-85
2021/09/04 03:23:05;;;;;;;15.38;5.80;;;14.30;99.90;;;;;;4990351;28;20544;-85
2021/09/04 03:25:31;;;;;;;16.52;6.50;;;14.30;99.90;;;;;;4992718;28;20045;-84
2021/09/04 03:27:57;;;;;;;12.15;5.57;;;14.30;99.90;;;;;;4976332;28;20128;-85
2021/09/04 03:30:23;;;;;;;11.93;5.40;;;14.30;99.90;;;;;;4991092;28;20142;-85
2021/09/04 03:32:49;;;;;;;10.18;5.03;;;14.30;99.90;;;;;;4975714;28;20034;-85
2021/09/04 03:35:15;;;;;;;11.38;5.07;;;14.30;99.90;;;;;;4956571;28;20034;-85
2021/09/04 03:37:40;;;;;;;10.20;4.95;;;14.30;99.90;;;;;;4990398;28;20092;-84
2021/09/04 03:40:07;;;;;;;10.80;4.50;;;14.30;99.90;;;;;;5007956;28;20044;-84
2021/09/04 03:42:32;;;;;;;9.73;4.40;;;14.30;99.90;;;;;;4974407;28;20041;-84
2021/09/04 03:44:58;;;;;;;10.25;4.72;;;14.30;99.90;;;;;;4980829;28;20060;-85
2021/09/04 03:47:24;;;;;;;9.68;4.45;;;14.30;99.90;;;;;;4958679;28;20801;-86
2021/09/04 03:49:49;;;;;;;10.43;4.50;;;14.30;99.90;;;;;;4974201;28;20044;-84
2021/09/04 03:52:15;;;;;;;6.60;3.60;;;14.30;99.90;;;;;;4960102;28;20282;-85
2021/09/04 03:54:41;;;;;;;6.68;4.32;;;14.30;99.90;;;;;;4992139;28;20657;-84
2021/09/04 03:57:07;;;;;;;13.23;4.53;;;14.30;99.90;;;;;;4975878;28;20042;-84
2021/09/04 03:59:32;;;;;;;14.98;4.63;;;14.30;99.90;;;;;;4974221;28;20033;-85
2021/09/04 04:01:58;;;;;;;8.10;3.85;;;14.30;99.90;;;;;;4959184;28;20393;-88
2021/09/04 04:04:24;;;;;;;12.10;4.78;;;14.30;99.90;;;;;;4985733;28;20038;-85
2021/09/04 04:06:49;;;;;;;12.23;4.63;;;14.30;99.90;;;;;;4991069;28;20068;-85
2021/09/04 04:09:15;;;;;;;7.85;4.45;;;14.30;99.90;;;;;;4990974;28;20029;-85
2021/09/04 04:11:41;;;;;;;11.45;4.07;;;14.30;99.90;;;;;;4991445;28;20056;-84
2021/09/04 04:14:07;;;;;;;7.00;4.13;;;14.30;99.90;;;;;;4974576;28;20133;-84
2021/09/04 04:16:33;;;;;;;12.05;4.68;;;14.30;99.90;;;;;;4990504;28;20132;-85
2021/09/04 04:18:58;;;;;;;8.65;4.28;;;14.30;99.90;;;;;;4974802;28;20139;-84
2021/09/04 04:21:24;;;;;;;13.23;4.85;;;14.30;99.90;;;;;;4990447;28;20045;-85
2021/09/04 04:23:50;;;;;;;12.57;4.75;;;14.30;99.90;;;;;;5006327;28;20042;-85
2021/09/04 04:26:16;;;;;;;9.50;4.20;;;14.30;99.90;;;;;;4975477;28;20037;-85
2021/09/04 04:28:41;;;;;;;10.25;4.20;;;14.30;99.90;;;;;;5008515;28;20180;-84
2021/09/04 04:31:07;;;;;;;14.60;4.88;;;14.30;99.90;;;;;;4971054;28;20488;-85
2021/09/04 04:33:33;;;;;;;8.85;4.63;;;14.30;99.90;;;;;;4978808;28;20045;-84
2021/09/04 04:35:58;;;;;;;13.80;4.53;;;14.30;99.90;;;;;;4990434;28;20042;-86
2021/09/04 04:38:24;;;;;;;9.15;4.75;;;14.30;99.90;;;;;;4976003;28;20057;-86
2021/09/04 04:40:50;;;;;;;10.60;5.05;;;14.30;99.90;;;;;;4975167;28;20048;-85
2021/09/04 04:43:16;;;;;;;10.05;4.40;;;14.30;99.90;;;;;;4990567;28;20056;-86
2021/09/04 04:45:42;;;;;;;9.50;4.95;;;14.30;99.90;;;;;;4972776;28;20046;-86
2021/09/04 04:48:08;;;;;;;7.95;4.40;;;14.30;99.90;;;;;;4968459;28;20124;-86
2021/09/04 04:50:33;;;;;;;8.68;4.32;;;14.30;99.90;;;;;;4988499;28;20044;-86
2021/09/04 04:53:00;;;;;;;11.23;4.68;;;14.30;99.90;;;;;;4993827;28;20033;-85
2021/09/04 04:55:26;;;;;;;9.02;4.65;;;14.30;99.90;;;;;;4996103;28;20041;-88
2021/09/04 04:57:51;;;;;;;12.80;5.00;;;14.30;99.90;;;;;;4996195;28;20037;-84
2021/09/04 05:00:17;;;;;;;9.65;4.07;;;14.30;99.90;;;;;;4991294;28;20286;-84
2021/09/04 05:02:43;;;;;;;10.40;4.47;;;14.30;99.90;;;;;;4995494;28;20087;-85
2021/09/04 05:05:09;;;;;;;10.13;4.55;;;14.30;99.90;;;;;;4995168;28;20392;-85
2021/09/04 05:07:36;;;;;;;12.30;4.60;;;14.20;99.90;;;;;;4995848;28;20496;-85
2021/09/04 05:10:03;;;;;;;8.40;4.40;;;14.20;99.90;;;;;;4997032;28;20045;-84
2021/09/04 05:12:29;;;;;;;9.70;4.40;;;14.20;99.80;;;;;;4988494;28;20633;-86
2021/09/04 05:14:54;;;;;;;9.75;4.18;;;14.20;99.80;;;;;;4975943;28;20098;-87
2021/09/04 05:17:20;;;;;;;10.40;4.10;;;14.20;99.80;;;;;;4995973;28;20508;-87
2021/09/04 05:19:46;;;;;;;10.85;4.50;;;14.30;99.80;;;;;;4983946;28;20121;-86
2021/09/04 05:22:12;;;;;;;13.07;4.38;;;14.20;99.80;;;;;;4977057;28;20604;-85
2021/09/04 05:24:37;;;;;;;8.05;4.25;;;14.30;99.90;;;;;;4962276;28;20128;-85
2021/09/04 05:27:03;;;;;;;11.60;4.60;;;14.20;99.90;;;;;;5010980;28;20034;-85
2021/09/04 05:29:30;;;;;;;10.95;4.25;;;14.30;99.90;;;;;;4978008;28;20096;-86
2021/09/04 05:31:56;;;;;;;7.97;3.92;;;14.30;99.90;;;;;;4977672;28;20076;-85
2021/09/04 05:34:22;;;;;;;17.10;4.22;;;14.30;99.90;;;;;;4993622;28;20126;-85
2021/09/04 05:36:48;;;;;;;12.40;4.38;;;14.30;99.90;;;;;;4989488;28;20469;-85
2021/09/04 05:39:14;;;;;;;8.07;4.18;;;14.30;99.80;;;;;;4974790;28;20092;-84
2021/09/04 05:41:40;;;;;;;8.18;3.90;;;14.30;99.70;;;;;;4981570;28;20057;-87
2021/09/04 05:44:06;;;;;;;7.03;4.13;;;14.30;99.70;;;;;;4992570;28;20038;-86
2021/09/04 05:46:32;;;;;;;10.57;4.15;;;14.30;99.60;;;;;;4976684;28;20045;-86
2021/09/04 05:48:58;;;;;;;10.90;3.58;;;14.30;99.40;;;;;;4975942;28;20038;-86
2021/09/04 05:51:23;;;;;;;10.55;3.70;;;14.30;99.40;;;;;;4994084;28;20045;-88
2021/09/04 05:53:49;;;;;;;9.00;3.72;;;14.30;99.40;;;;;;4961990;28;20046;-84
2021/09/04 05:56:15;;;;;;;8.80;3.38;;;14.30;99.40;;;;;;4977340;28;20397;-85
2021/09/04 05:58:40;;;;;;;10.95;4.50;;;14.30;99.30;;;;;;5009465;28;20189;-86
2021/09/04 06:01:07;;;;;;;11.07;4.47;;;14.30;99.30;;;;;;5010230;28;20041;-85
2021/09/04 06:03:32;;;;;;;11.25;4.25;;;14.30;99.30;;;;;;4995792;28;20139;-85
2021/09/04 06:05:58;;;;;;;8.82;3.85;;;14.30;99.30;;;;;;4996006;28;20038;-87
2021/09/04 06:08:25;;;;;;;13.07;3.65;;;14.40;99.40;;;;;;5012657;28;20118;-86
2021/09/04 06:10:51;;;;;;;10.93;4.43;;;14.40;99.40;;;;;;4996665;28;20065;-85
2021/09/04 06:13:18;;;;;;;11.45;4.65;;;14.40;99.20;;;;;;4994966;28;20064;-85
2021/09/04 06:15:44;;;;;;;11.63;3.85;;;14.40;99.20;;;;;;4981850;28;20048;-85
2021/09/04 06:18:13;;;;;;;11.38;3.80;;;14.40;99.20;;;;;;4961903;28;20472;-84
2021/09/04 06:20:40;;;;;;;11.35;3.70;;;14.40;99.20;;;;;;4997173;28;20177;-84
2021/09/04 06:23:06;;;;;;;9.32;4.07;;;14.50;99.20;;;;;;4994111;28;20042;-84
2021/09/04 06:25:34;;;;;;;9.18;3.88;;;14.50;99.20;;;;;;5012338;28;20052;-84
2021/09/04 06:28:00;;;;;;;10.70;4.10;;;14.50;99.20;;;;;;4991692;28;20117;-84
2021/09/04 06:30:25;;;;;;;9.48;3.90;;;14.50;99.10;;;;;;4995144;28;20750;-84
2021/09/04 06:32:51;;;;;;;9.50;3.63;;;14.50;99.10;;;;;;4977284;28;20241;-85
2021/09/04 06:35:17;;;;;;;10.82;3.50;;;14.60;99.00;;;;;;4991784;28;20099;-85
2021/09/04 06:37:43;;;;;;;10.65;3.55;;;14.60;99.00;;;;;;4993773;28;20046;-84
2021/09/04 06:40:08;;;;;;;9.88;3.40;;;14.60;99.00;;;;;;4960337;28;20046;-84
2021/09/04 06:42:36;;;;;;;8.57;3.67;;;14.60;98.90;;;;;;4993852;28;20488;-84
2021/09/04 06:45:02;;;;;;;9.43;3.58;;;14.70;98.80;;;;;;4994553;28;20032;-84
2021/09/04 06:47:27;;;;;;;8.43;4.03;;;14.70;98.80;;;;;;4995467;28;20037;-84
2021/09/04 06:49:53;;;;;;;9.82;3.63;;;14.70;98.80;;;;;;4995121;28;20485;-84
2021/09/04 06:52:19;;;;;;;13.73;3.95;;;14.70;98.70;;;;;;4996492;28;20346;-84
2021/09/04 06:54:44;;;;;;;11.48;3.78;;;14.80;98.60;;;;;;5006377;28;20516;-84
2021/09/04 06:57:10;;;;;;;9.95;3.25;;;14.80;98.40;;;;;;4973414;28;20038;-85
2021/09/04 06:59:36;;;;;;;9.60;3.63;;;14.80;98.40;;;;;;4991916;28;20136;-85
2021/09/04 07:02:02;;;;;;;10.65;3.70;;;14.80;98.40;;;;;;4990411;28;20048;-84
2021/09/04 07:04:27;;;;;;;9.00;3.60;;;14.90;98.30;;;;;;4976382;28;20042;-84
2021/09/04 07:06:53;;;;;;;8.68;3.30;;;14.90;98.30;;;;;;5014426;28;20572;-85
2021/09/04 07:09:19;;;;;;;9.32;2.90;;;15.00;98.00;;;;;;4990985;28;20049;-85
2021/09/04 07:11:44;;;;;;;8.15;3.28;;;14.90;97.90;;;;;;4996417;28;20042;-83
2021/09/04 07:14:10;;;;;;;10.13;3.10;;;15.00;97.70;;;;;;4973191;28;20412;-86
2021/09/04 07:16:36;;;;;;;12.20;3.30;;;15.00;97.60;;;;;;4981665;28;20385;-84
2021/09/04 07:19:02;;;;;;;10.85;3.30;;;15.00;97.70;;;;;;4988180;28;20112;-84
2021/09/04 07:21:27;;;;;;;13.65;3.70;;;15.00;97.70;;;;;;4994293;28;20132;-84
2021/09/04 07:23:53;;;;;;;12.40;3.20;;;15.10;97.80;;;;;;4993222;28;20038;-85
2021/09/04 07:26:19;;;;;;;11.10;3.70;;;15.10;97.50;;;;;;4975645;28;20653;-87
2021/09/04 07:28:44;;;;;;;9.32;3.40;;;15.10;97.50;;;;;;4979991;28;20041;-85
2021/09/04 07:31:10;;;;;;;13.10;3.28;;;15.10;97.50;;;;;;5013048;28;20073;-84
2021/09/04 07:33:36;;;;;;;11.82;3.10;;;15.10;97.30;;;;;;4986207;28;20413;-84
2021/09/04 07:36:08;;;;;;;9.68;3.10;;;15.20;97.40;;;;;;4995356;28;20053;-84
2021/09/04 07:38:35;;;;;;;10.93;3.72;;;15.20;97.40;;;;;;4994928;28;20496;-84
2021/09/04 07:41:01;;;;;;;9.23;3.45;;;15.20;97.40;;;;;;4988039;28;20436;-84
2021/09/04 07:43:26;;;;;;;8.32;3.20;;;15.20;97.20;;;;;;4993901;28;20144;-84
2021/09/04 07:45:52;;;;;;;16.13;4.30;;;15.30;97.20;;;;;;4986320;28;20408;-84
2021/09/04 07:48:18;;;;;;;21.83;3.30;;;15.30;97.20;;;;;;4991783;28;20030;-84
2021/09/04 07:50:43;;;;;;;11.15;3.58;;;15.30;97.30;;;;;;4985518;28;20161;-85
2021/09/04 07:53:09;;;;;;;9.23;3.03;;;15.40;97.20;;;;;;4975127;28;20045;-84
2021/09/04 07:55:35;;;;;;;11.10;2.97;;;15.40;97.00;;;;;;4970093;28;20041;-83
2021/09/04 07:58:01;;;;;;;10.30;3.10;;;15.40;96.80;;;;;;4973202;28;20042;-85
2021/09/04 08:00:26;;;;;;;9.77;3.13;;;15.40;96.70;;;;;;4986972;28;20413;-85
2021/09/04 08:02:52;;;;;;;8.20;2.92;;;15.40;96.60;;;;;;4973787;28;20181;-86
2021/09/04 08:05:18;;;;;;;13.63;2.80;;;15.50;96.60;;;;;;4972875;28;20136;-87
2021/09/04 08:07:43;;;;;;;9.07;2.85;;;15.50;96.60;;;;;;5008866;28;20056;-85
2021/09/04 08:10:09;;;;;;;5.50;2.80;;;15.50;96.20;;;;;;4990572;28;20551;-85
2021/09/04 08:12:35;;;;;;;9.77;2.97;;;15.50;96.40;;;;;;4991061;28;20044;-86
2021/09/04 08:15:01;;;;;;;8.57;2.95;;;15.60;96.10;;;;;;4972786;28;20342;-84
2021/09/04 08:17:27;;;;;;;6.88;3.15;;;15.60;95.90;;;;;;4978206;28;20034;-85
2021/09/04 08:19:53;;;;;;;9.80;3.20;;;15.60;95.70;;;;;;4980683;28;20069;-86
2021/09/04 08:22:18;;;;;;;7.93;2.90;;;15.60;95.70;;;;;;4982965;28;20041;-85
2021/09/04 08:24:44;;;;;;;6.50;2.83;;;15.60;95.80;;;;;;4966131;28;20700;-83
2021/09/04 08:27:10;;;;;;;5.43;2.78;;;15.70;95.90;;;;;;4998887;28;20389;-83
2021/09/04 08:29:35;;;;;;;6.22;2.50;;;15.70;95.80;;;;;;4984872;28;20037;-82
2021/09/04 08:32:01;;;;;;;7.80;3.10;;;15.70;95.60;;;;;;4965770;28;20371;-84
2021/09/04 08:34:27;;;;;;;5.40;2.80;;;15.70;95.70;;;;;;4964516;28;20057;-85
2021/09/04 08:36:53;;;;;;;10.00;2.80;;;15.80;95.60;;;;;;4975970;28;20420;-83
2021/09/04 08:39:19;;;;;;;11.68;3.20;;;15.80;95.70;;;;;;4986931;28;20084;-84
2021/09/04 08:41:45;;;;;;;7.55;2.92;;;15.90;95.60;;;;;;4981201;28;20127;-84
2021/09/04 08:44:11;;;;;;;11.00;3.03;;;16.00;95.60;;;;;;4985221;28;20481;-84
2021/09/04 08:46:38;;;;;;;7.00;2.33;;;16.00;95.50;;;;;;4986394;28;20045;-83
2021/09/04 08:49:05;;;;;;;6.30;2.63;;;16.10;95.30;;;;;;4986171;28;20034;-83
2021/09/04 08:51:32;;;;;;;6.82;2.63;;;16.20;95.10;;;;;;4994866;28;20030;-84
2021/09/04 08:53:58;;;;;;;16.50;3.60;;;16.20;95.00;;;;;;4994319;28;20042;-84
2021/09/04 08:56:24;;;;;;;16.75;3.22;;;16.30;94.90;;;;;;5004396;28;20263;-84
2021/09/04 08:58:49;;;;;;;18.88;4.00;;;16.30;94.60;;;;;;4983834;28;20096;-84
2021/09/04 09:01:17;;;;;;;12.23;3.70;;;16.30;94.50;;;;;;4970895;28;20073;-84
2021/09/04 09:03:44;;;;;;;8.55;3.05;;;16.30;94.30;;;;;;4982547;28;20161;-82
2021/09/04 09:06:22;;;;;;;11.40;3.13;;;16.30;94.10;;;;;;4986179;28;20034;-84
2021/09/04 09:08:48;;;;;;;20.38;4.13;;;16.30;93.90;;;;;;4991540;28;20077;-83
2021/09/04 09:11:14;;;;;;;11.70;3.55;;;16.30;94.00;;;;;;4982672;28;20636;-85
2021/09/04 09:13:52;;;;;;;11.20;3.28;;;16.40;94.00;;;;;;4991756;28;20042;-83
2021/09/04 09:16:20;;;;;;;10.43;3.28;;;16.50;94.20;;;;;;4985528;28;20563;-83
2021/09/04 09:19:15;;;;;;;11.32;2.97;;;16.60;94.20;;;;;;4990864;28;20048;-85
2021/09/04 09:21:41;;;;;;;9.35;3.38;;;16.80;93.50;;;;;;4963366;28;20046;-84
2021/09/04 09:24:12;;;;;;;8.07;3.58;;;16.80;93.60;;;;;;4970014;28;20037;-86
2021/09/04 09:26:50;;;;;;;7.10;3.00;;;16.80;93.60;;;;;;5005385;28;20037;-85
2021/09/04 09:29:34;;;;;;;9.55;3.03;;;16.90;93.40;;;;;;5003855;28;20053;-84
2021/09/04 09:32:04;;;;;;;7.40;2.88;;;16.90;92.60;;;;;;4981056;28;20862;-84
2021/09/04 09:34:31;;;;;;;7.65;3.20;;;17.00;93.20;;;;;;5003868;28;20073;-83
2021/09/04 09:36:58;;;;;;;8.60;3.47;;;17.00;93.20;;;;;;4974990;28;20446;-84
2021/09/04 09:39:26;;;;;;;9.75;3.22;;;17.10;93.10;;;;;;5005658;28;20489;-84
2021/09/04 09:41:53;;;;;;;6.07;3.08;;;17.20;93.00;;;;;;4989648;28;20042;-83
2021/09/04 09:44:21;;;;;;;9.05;3.17;;;17.30;92.50;;;;;;4983632;28;20054;-84
2021/09/04 09:47:08;;;;;;;17.13;4.57;;;17.40;92.40;;;;;;4989661;28;20037;-84
2021/09/04 09:49:52;;;;;;;6.63;3.45;;;17.50;91.60;;;;;;4986311;28;20050;-84
2021/09/04 09:52:18;;;;;;;11.73;3.92;;;17.50;91.80;;;;;;4985600;28;20044;-84
2021/09/04 09:54:48;;;;;;;8.57;3.60;;;17.50;92.10;;;;;;4974221;28;20048;-84
2021/09/04 09:57:14;;;;;;;10.95;3.35;;;17.50;92.10;;;;;;5004511;28;20041;-84
2021/09/04 09:59:45;;;;;;;14.23;4.03;;;17.50;91.90;;;;;;4989827;28;20073;-85
2021/09/04 10:02:13;;;;;;;9.43;4.28;;;17.50;91.90;;;;;;4986382;28;20247;-84
2021/09/04 10:04:40;;;;;;;14.40;4.68;;;17.50;91.80;;;;;;5002688;28;20046;-84
2021/09/04 10:07:08;;;;;;;13.02;4.40;;;17.50;91.60;;;;;;4988824;28;20102;-84
2021/09/04 10:09:37;;;;;;;42.00;7.28;;;17.60;91.60;;;;;;5000588;28;20054;-84
2021/09/04 10:12:03;;;;;;;16.05;4.70;;;17.60;91.50;;;;;;4986964;28;20069;-85
2021/09/04 10:14:29;;;;;;;10.18;4.90;;;17.70;91.60;;;;;;5008772;28;20093;-84
2021/09/04 10:16:58;;;;;;;15.85;5.97;;;17.70;91.60;;;;;;4989072;28;20087;-85
2021/09/04 10:19:34;;;;;;;11.57;5.20;;;17.80;90.80;;;;;;4989376;28;20046;-85
2021/09/04 10:22:03;;;;;;;13.43;4.97;;;17.70;91.00;;;;;;4986219;28;20048;-84
2021/09/04 10:24:47;;;;;;;14.50;5.60;;;17.80;91.00;;;;;;4986595;28;20069;-86
2021/09/04 10:27:28;;;;;;;17.27;5.65;;;17.90;90.90;;;;;;4998592;28;20120;-85
2021/09/04 10:29:54;;;;;;;10.77;5.07;;;17.90;90.70;;;;;;4992935;28;20126;-85
2021/09/04 10:32:20;;;;;;;13.27;5.30;;;17.90;90.60;;;;;;5008752;28;20117;-86
2021/09/04 10:34:48;;;;;;;15.93;5.50;;;18.00;90.40;;;;;;4992962;28;20096;-87
2021/09/04 10:37:18;;;;;;;14.43;5.60;;;18.00;90.70;;;;;;5010951;28;20505;-86
2021/09/04 10:39:49;;;;;;;17.00;6.00;;;18.00;90.70;;;;;;4997464;28;20428;-86
2021/09/04 10:42:25;;;;;;;17.33;6.37;;;17.90;90.60;;;;;;4998592;28;20061;-85
2021/09/04 10:45:00;;;;;;;15.13;7.15;;;18.00;90.80;;;;;;4996481;28;20038;-84
2021/09/04 10:47:26;;;;;;;18.65;6.40;;;18.00;90.70;;;;;;5006629;28;20045;-86
2021/09/04 10:49:53;;;;;;;13.05;6.28;;;17.90;90.40;;;;;;5007662;28;20519;-84
2021/09/04 10:52:50;;;;;;;15.70;6.25;;;17.80;90.60;;;;;;4985749;28;20038;-85
2021/09/04 10:55:20;;;;;;;17.13;6.60;;;17.90;90.60;;;;;;4999265;28;20046;-86
2021/09/04 10:57:51;;;;;;;14.60;6.13;;;17.80;90.90;;;;;;5004904;28;20121;-87
2021/09/04 11:00:22;;;;;;;14.80;6.53;;;17.90;90.90;;;;;;4988187;28;20053;-84
2021/09/04 11:02:51;;;;;;;13.88;5.60;;;18.00;90.80;;;;;;5021830;28;20437;-86
2021/09/04 11:05:51;;;;;;;14.88;6.13;;;18.00;90.30;;;;;;5007371;28;20537;-85
2021/09/04 11:08:19;;;;;;;12.05;6.07;;;18.10;90.90;;;;;;5006725;28;20100;-87
2021/09/04 11:10:48;;;;;;;16.30;6.88;;;18.20;90.70;;;;;;5007339;28;20044;-85
2021/09/04 11:13:17;;;;;;;16.38;6.20;;;18.30;90.60;;;;;;4990692;28;20124;-84
2021/09/04 11:15:46;;;;;;;14.27;6.25;;;18.30;90.20;;;;;;4990506;28;20041;-84
2021/09/04 11:18:14;;;;;;;13.15;6.05;;;18.30;89.50;;;;;;4988195;28;20905;-85
2021/09/04 11:20:46;;;;;;;17.00;6.78;;;18.30;89.40;;;;;;5005759;28;20073;-84
2021/09/04 11:23:25;;;;;;;19.27;6.82;;;18.30;89.70;;;;;;5001378;28;20034;-85
2021/09/04 11:25:52;;;;;;;15.55;6.93;;;18.30;89.30;;;;;;4987402;28;20124;-87
2021/09/04 11:28:29;;;;;;;15.20;6.15;;;18.40;89.40;;;;;;4990512;28;20076;-86
2021/09/04 11:30:54;;;;;;;11.85;6.65;;;18.40;89.80;;;;;;4988303;28;20037;-85
2021/09/04 11:33:20;;;;;;;14.88;7.22;;;18.40;89.80;;;;;;4982241;28;20121;-86
2021/09/04 11:35:47;;;;;;;14.18;7.20;;;18.40;89.60;;;;;;4956151;28;20065;-87
2021/09/04 11:38:14;;;;;;;19.30;7.97;;;18.50;88.60;;;;;;5004907;28;20500;-85
2021/09/04 11:40:40;;;;;;;15.48;6.90;;;18.50;87.70;;;;;;4992746;28;20501;-85
2021/09/04 11:43:06;;;;;;;27.00;7.88;;;18.50;88.50;;;;;;4993102;28;20049;-86
2021/09/04 11:45:33;;;;;;;24.83;7.63;;;18.40;87.50;;;;;;4976177;28;20033;-85
2021/09/04 11:48:05;;;;;;;16.48;7.85;;;18.50;87.40;;;;;;4979132;28;20040;-85
2021/09/04 11:50:32;;;;;;;19.05;7.85;;;18.60;87.50;;;;;;5013410;28;20045;-88
2021/09/04 11:53:00;;;;;;;68.35;11.77;;;18.60;88.00;;;;;;5006389;28;20047;-85
2021/09/04 11:55:30;;;;;;;22.42;8.45;;;18.60;87.90;;;;;;4989229;28;20496;-85
2021/09/04 11:57:58;;;;;;;21.15;9.45;;;18.70;87.50;;;;;;4985501;28;20362;-85
2021/09/04 12:00:29;;;;;;;24.30;9.60;;;18.70;87.40;;;;;;4989343;28;20042;-85
2021/09/04 12:03:03;;;;;;;17.98;8.73;;;18.80;87.10;;;;;;4984840;28;20038;-85
2021/09/04 12:05:31;;;;;;;17.05;8.52;;;18.80;87.00;;;;;;5002760;28;20029;-87
2021/09/04 12:08:17;;;;;;;16.98;8.43;;;18.90;86.90;;;;;;5001782;28;20042;-88
2021/09/04 12:10:46;;;;;;;14.75;8.32;;;19.00;86.30;;;;;;4982032;28;20050;-88
2021/09/04 12:13:24;;;;;;;15.38;8.50;;;19.00;85.50;;;;;;4999078;28;20046;-85
2021/09/04 12:15:59;;;;;;;16.10;8.35;;;18.90;85.40;;;;;;4981323;28;20155;-85
2021/09/04 12:18:34;;;;;;;18.17;8.95;;;18.80;83.60;;;;;;4989808;28;20041;-85
2021/09/04 12:21:20;;;;;;;22.00;8.48;;;18.80;84.40;;;;;;4984959;28;20080;-86
2021/09/04 12:23:47;;;;;;;19.17;8.23;;;18.80;85.80;;;;;;4980475;28;20045;-86
2021/09/04 12:26:14;;;;;;;16.95;8.25;;;18.80;85.40;;;;;;4989267;28;20041;-88
2021/09/04 12:28:39;;;;;;;18.73;8.75;;;18.90;86.40;;;;;;4987335;28;20034;-87
2021/09/04 12:31:16;;;;;;;15.52;8.82;;;19.00;86.00;;;;;;5000619;28;20041;-89
2021/09/04 12:33:51;;;;;;;16.67;8.77;;;19.10;86.10;;;;;;4965234;28;20049;-86
2021/09/04 12:36:39;;;;;;;17.35;8.85;;;19.20;85.30;;;;;;4987348;28;20500;-87
2021/09/04 12:39:20;;;;;;;18.42;8.90;;;19.20;86.00;;;;;;4986789;28;20103;-86